createdAt,value
2023-03-24T00:01:04.481Z,5.25
2023-03-24T00:03:53.359Z,5.55
2023-03-24T00:06:43.599Z,5.75
2023-03-24T00:09:32.577Z,5.90
2023-03-24T00:12:21.310Z,5.72
2023-03-24T00:15:14.687Z,5.57
2023-03-24T00:18:03.505Z,6.18
2023-03-24T00:20:58.300Z,6.13
2023-03-24T00:23:47.744Z,7.40
2023-03-24T00:26:38.208Z,6.68
2023-03-24T00:29:27.024Z,7.30
2023-03-24T00:32:17.652Z,7.18
2023-03-24T00:35:08.950Z,7.55
2023-03-24T00:37:58.445Z,6.80
2023-03-24T00:40:48.608Z,6.20
2023-03-24T00:43:37.784Z,6.28
2023-03-24T00:46:30.193Z,5.90
2023-03-24T00:49:26.009Z,6.03
2023-03-24T00:52:18.139Z,6.25
2023-03-24T00:55:09.172Z,5.95
2023-03-24T00:57:57.843Z,5.82
2023-03-24T01:00:48.567Z,6.22
2023-03-24T01:03:48.364Z,5.95
2023-03-24T01:06:39.627Z,5.72
2023-03-24T01:09:28.416Z,5.85
2023-03-24T01:12:19.238Z,5.88
2023-03-24T01:15:15.982Z,5.75
2023-03-24T01:18:04.975Z,6.40
2023-03-24T01:20:55.347Z,5.90
2023-03-24T01:23:45.997Z,5.75
2023-03-24T01:26:34.839Z,5.78
2023-03-24T01:29:23.871Z,6.20
2023-03-24T01:32:12.616Z,6.22
2023-03-24T01:35:02.008Z,5.78
2023-03-24T01:37:50.972Z,5.57
2023-03-24T01:40:44.146Z,5.90
2023-03-24T01:43:35.201Z,5.63
2023-03-24T01:46:26.671Z,5.43
2023-03-24T01:49:15.731Z,5.40
2023-03-24T01:52:08.754Z,5.75
2023-03-24T01:55:01.276Z,5.93
2023-03-24T01:57:54.535Z,5.22
2023-03-24T02:00:46.037Z,5.60
2023-03-24T02:03:58.092Z,5.57
2023-03-24T02:06:49.058Z,5.25
2023-03-24T02:09:37.898Z,5.97
2023-03-24T02:12:27.269Z,5.53
2023-03-24T02:15:20.709Z,5.30
2023-03-24T02:18:21.185Z,5.20
2023-03-24T02:21:54.297Z,5.78
2023-03-24T02:25:27.231Z,5.28
2023-03-24T02:28:26.354Z,5.50
2023-03-24T02:31:45.087Z,5.18
2023-03-24T02:35:11.743Z,5.22
2023-03-24T02:38:31.120Z,5.70
2023-03-24T02:41:26.289Z,5.22
2023-03-24T02:44:22.806Z,5.32
2023-03-24T02:47:17.499Z,5.50
2023-03-24T02:50:16.552Z,5.43
2023-03-24T02:53:12.447Z,5.38
2023-03-24T02:56:22.021Z,5.18
2023-03-24T02:59:21.700Z,5.20
2023-03-24T03:02:20.416Z,5.15
2023-03-24T03:05:22.646Z,5.43
2023-03-24T03:08:17.470Z,5.22
2023-03-24T03:11:09.094Z,5.18
2023-03-24T03:14:02.344Z,5.40
2023-03-24T03:17:00.040Z,5.85
2023-03-24T03:19:53.333Z,4.88
2023-03-24T03:22:46.134Z,5.20
2023-03-24T03:25:38.780Z,5.13
2023-03-24T03:28:30.109Z,5.72
2023-03-24T03:31:23.927Z,5.20
2023-03-24T03:34:21.709Z,5.05
2023-03-24T03:37:20.289Z,5.18
2023-03-24T03:40:12.740Z,5.20
2023-03-24T03:43:06.796Z,5.20
2023-03-24T03:45:56.282Z,5.30
2023-03-24T03:48:51.228Z,6.07
2023-03-24T03:51:42.390Z,5.38
2023-03-24T03:54:34.341Z,5.70
2023-03-24T03:57:23.213Z,5.32
2023-03-24T04:00:26.237Z,5.40
2023-03-24T04:03:52.009Z,5.38
2023-03-24T04:06:53.917Z,5.53
2023-03-24T04:09:53.862Z,6.28
2023-03-24T04:12:57.404Z,5.90
2023-03-24T04:16:37.335Z,5.57
2023-03-24T04:19:44.933Z,5.80
2023-03-24T04:22:44.951Z,7.55
2023-03-24T04:25:56.697Z,6.03
2023-03-24T04:28:58.293Z,5.97
2023-03-24T04:31:53.620Z,6.72
2023-03-24T04:34:50.963Z,5.70
2023-03-24T04:38:02.467Z,5.78
2023-03-24T04:40:56.637Z,6.18
2023-03-24T04:43:47.666Z,5.88
2023-03-24T04:46:36.630Z,6.25
2023-03-24T04:49:33.226Z,5.97
2023-03-24T04:52:27.984Z,6.53
2023-03-24T04:55:46.421Z,6.15
2023-03-24T04:58:35.556Z,7.28
2023-03-24T05:01:37.773Z,7.20
2023-03-24T05:04:45.177Z,7.13
2023-03-24T05:07:39.181Z,7.50
2023-03-24T05:10:32.160Z,7.00
2023-03-24T05:13:22.261Z,7.47
2023-03-24T05:16:17.727Z,7.68
2023-03-24T05:19:15.028Z,7.90
2023-03-24T05:22:03.983Z,8.68
2023-03-24T05:24:52.796Z,9.10
2023-03-24T05:27:42.008Z,8.63
2023-03-24T05:30:41.441Z,8.75
2023-03-24T05:33:40.784Z,8.55
2023-03-24T05:36:33.057Z,9.25
2023-03-24T05:39:24.497Z,9.50
2023-03-24T05:42:28.049Z,10.15
2023-03-24T05:45:16.894Z,9.43
2023-03-24T05:48:07.557Z,11.13
2023-03-24T05:51:14.188Z,10.15
2023-03-24T05:54:06.214Z,10.15
2023-03-24T05:56:58.784Z,10.23
2023-03-24T06:00:07.876Z,10.88
2023-03-24T06:03:18.573Z,11.07
2023-03-24T06:06:19.772Z,11.40
2023-03-24T06:09:08.774Z,10.80
2023-03-24T06:11:57.815Z,10.60
2023-03-24T06:14:47.397Z,11.48
2023-03-24T06:17:37.537Z,11.05
2023-03-24T06:20:39.241Z,10.25
2023-03-24T06:23:30.195Z,10.73
2023-03-24T06:26:31.140Z,11.23
2023-03-24T06:29:21.761Z,10.43
2023-03-24T06:32:10.893Z,10.77
2023-03-24T06:35:04.181Z,11.15
2023-03-24T06:38:07.090Z,11.40
2023-03-24T06:41:01.042Z,10.48
2023-03-24T06:43:49.924Z,10.85
2023-03-24T06:46:38.933Z,10.43
2023-03-24T06:49:28.013Z,10.63
2023-03-24T06:52:16.874Z,10.68
2023-03-24T06:55:08.409Z,10.75
2023-03-24T06:57:57.093Z,10.18
2023-03-24T07:01:00.227Z,9.63
2023-03-24T07:04:01.354Z,10.65
2023-03-24T07:07:19.138Z,9.77
2023-03-24T07:10:19.517Z,10.45
2023-03-24T07:13:08.433Z,10.63
2023-03-24T07:15:58.863Z,9.93
2023-03-24T07:18:50.399Z,10.43
2023-03-24T07:21:39.427Z,10.73
2023-03-24T07:24:30.633Z,9.48
2023-03-24T07:27:32.868Z,9.85
2023-03-24T07:30:27.322Z,10.10
2023-03-24T07:33:24.416Z,9.38
2023-03-24T07:36:13.378Z,9.57
2023-03-24T07:39:04.892Z,8.80
2023-03-24T07:41:57.171Z,9.65
2023-03-24T07:44:56.420Z,9.60
2023-03-24T07:47:47.349Z,10.25
2023-03-24T07:50:36.104Z,9.48
2023-03-24T07:53:32.533Z,9.93
2023-03-24T07:56:21.413Z,9.60
2023-03-24T07:59:15.696Z,9.30
2023-03-24T08:02:18.820Z,9.43
2023-03-24T08:05:19.950Z,8.90
2023-03-24T08:08:33.449Z,9.38
2023-03-24T08:11:22.513Z,9.60
2023-03-24T08:14:11.354Z,10.27
2023-03-24T08:17:00.395Z,10.55
2023-03-24T08:19:59.463Z,9.45
2023-03-24T08:22:54.681Z,10.13
2023-03-24T08:25:43.695Z,10.32
2023-03-24T08:28:32.768Z,47.97
2023-03-24T08:31:21.997Z,10.00
2023-03-24T08:34:12.607Z,9.45
2023-03-24T08:37:02.884Z,9.70
2023-03-24T08:39:51.762Z,10.50
2023-03-24T08:42:41.360Z,10.55
2023-03-24T08:45:32.689Z,9.82
2023-03-24T08:48:22.906Z,10.07
2023-03-24T08:51:13.163Z,9.15
2023-03-24T08:54:03.982Z,8.80
2023-03-24T08:56:52.907Z,9.02
2023-03-24T08:59:41.717Z,8.45
2023-03-24T09:02:30.569Z,9.75
2023-03-24T09:05:26.959Z,8.98
2023-03-24T09:08:26.744Z,8.70
2023-03-24T09:11:19.294Z,9.55
2023-03-24T09:14:07.983Z,9.65
2023-03-24T09:16:56.884Z,9.10
2023-03-24T09:19:47.451Z,9.55
2023-03-24T09:22:38.317Z,9.60
2023-03-24T09:25:27.170Z,9.15
2023-03-24T09:28:17.389Z,9.57
2023-03-24T09:31:07.651Z,9.25
2023-03-24T09:33:56.436Z,9.32
2023-03-24T09:36:45.529Z,8.15
2023-03-24T09:39:40.436Z,8.60
2023-03-24T09:42:33.731Z,8.48
2023-03-24T09:45:25.369Z,9.45
2023-03-24T09:48:20.985Z,8.90
2023-03-24T09:51:14.721Z,8.43
2023-03-24T09:54:13.858Z,8.30
2023-03-24T09:57:03.119Z,9.80
2023-03-24T09:59:52.184Z,9.18
2023-03-24T10:02:42.627Z,8.05
2023-03-24T10:05:36.894Z,8.00
2023-03-24T10:08:32.109Z,8.43
2023-03-24T10:11:28.051Z,8.15
2023-03-24T10:14:28.737Z,7.50
2023-03-24T10:18:41.418Z,7.50
2023-03-24T10:21:33.554Z,8.93
2023-03-24T10:24:30.333Z,9.10
2023-03-24T10:27:26.871Z,7.95
2023-03-24T10:30:19.025Z,7.97
2023-03-24T10:33:07.698Z,8.05
2023-03-24T10:36:02.640Z,7.82
2023-03-24T10:38:51.694Z,7.55
2023-03-24T10:41:42.456Z,8.57
2023-03-24T10:44:32.243Z,8.23
2023-03-24T10:47:25.530Z,8.07
2023-03-24T10:50:15.924Z,8.68
2023-03-24T10:53:17.867Z,7.60
2023-03-24T10:56:07.412Z,8.35
2023-03-24T10:58:56.331Z,8.95
2023-03-24T11:01:45.839Z,7.78
2023-03-24T11:04:35.215Z,8.63
2023-03-24T11:07:25.286Z,9.23
2023-03-24T11:10:26.618Z,7.93
2023-03-24T11:13:19.833Z,7.93
2023-03-24T11:16:15.087Z,8.70
2023-03-24T11:19:08.709Z,8.05
2023-03-24T11:22:03.607Z,8.43
2023-03-24T11:24:56.460Z,7.93
2023-03-24T11:27:47.509Z,8.30
2023-03-24T11:30:47.044Z,8.20
2023-03-24T11:33:43.804Z,8.10
2023-03-24T11:36:50.305Z,8.35
2023-03-24T11:39:39.353Z,7.93
2023-03-24T11:42:29.067Z,8.10
2023-03-24T11:45:39.652Z,7.63
2023-03-24T11:48:34.222Z,7.93
2023-03-24T11:51:30.117Z,8.52
2023-03-24T11:54:21.703Z,8.57
2023-03-24T11:57:14.873Z,8.45
2023-03-24T12:00:13.748Z,8.48
2023-03-24T12:03:48.039Z,8.27
2023-03-24T12:06:48.384Z,7.72
2023-03-24T12:09:42.967Z,6.95
2023-03-24T12:12:39.389Z,6.38
2023-03-24T12:15:38.681Z,7.25
2023-03-24T12:18:44.353Z,5.90
2023-03-24T12:21:49.343Z,6.18
2023-03-24T12:24:59.164Z,6.20
2023-03-24T12:27:59.690Z,6.38
2023-03-24T12:31:01.228Z,6.85
2023-03-24T12:33:58.607Z,5.82
2023-03-24T12:37:01.577Z,6.88
2023-03-24T12:40:02.532Z,6.20
2023-03-24T12:43:00.652Z,5.55
2023-03-24T12:45:53.596Z,7.38
2023-03-24T12:49:13.424Z,5.50
2023-03-24T12:52:19.727Z,5.25
2023-03-24T12:55:14.680Z,5.00
2023-03-24T12:58:11.505Z,5.00
2023-03-24T13:01:07.684Z,4.30
2023-03-24T13:04:06.358Z,4.53
2023-03-24T13:07:00.601Z,4.45
2023-03-24T13:09:55.959Z,4.45
2023-03-24T13:12:50.309Z,4.50
2023-03-24T13:15:44.186Z,4.05
2023-03-24T13:18:36.604Z,4.50
2023-03-24T13:21:26.689Z,4.43
2023-03-24T13:24:19.495Z,4.28
2023-03-24T13:27:17.196Z,4.80
2023-03-24T13:30:21.279Z,3.63
2023-03-24T13:33:15.996Z,4.40
2023-03-24T13:36:36.032Z,3.58
2023-03-24T13:39:27.737Z,3.55
2023-03-24T13:42:32.929Z,3.55
2023-03-24T13:45:36.223Z,4.10
2023-03-24T13:48:34.544Z,3.80
2023-03-24T13:51:27.514Z,3.15
2023-03-24T13:54:20.078Z,2.90
2023-03-24T13:57:17.262Z,3.00
2023-03-24T14:00:21.830Z,3.00
2023-03-24T14:03:32.526Z,3.33
2023-03-24T14:06:48.200Z,3.10
2023-03-24T14:10:00.653Z,2.50
2023-03-24T14:12:55.968Z,3.15
2023-03-24T14:15:50.562Z,3.03
2023-03-24T14:18:44.099Z,2.75
2023-03-24T14:21:37.428Z,2.80
2023-03-24T14:24:29.573Z,3.55
2023-03-24T14:27:36.864Z,3.00
2023-03-24T14:30:30.697Z,2.70
2023-03-24T14:33:27.036Z,2.65
2023-03-24T14:36:23.300Z,2.80
2023-03-24T14:39:21.707Z,3.00
2023-03-24T14:42:42.828Z,3.20
2023-03-24T14:46:03.546Z,5.20
2023-03-24T14:48:59.015Z,2.88
2023-03-24T14:51:56.416Z,2.92
2023-03-24T14:54:49.398Z,2.63
2023-03-24T14:57:41.970Z,2.78
2023-03-24T15:00:37.213Z,2.63
2023-03-24T15:03:38.222Z,2.70
2023-03-24T15:06:29.251Z,2.50
2023-03-24T15:09:19.809Z,2.92
2023-03-24T15:12:08.771Z,3.33
2023-03-24T15:15:00.198Z,2.70
2023-03-24T15:17:50.528Z,2.50
2023-03-24T15:20:39.473Z,3.35
2023-03-24T15:23:30.352Z,2.60
2023-03-24T15:26:23.823Z,3.70
2023-03-24T15:29:12.662Z,2.88
2023-03-24T15:32:02.093Z,2.88
2023-03-24T15:34:53.716Z,2.58
2023-03-24T15:37:48.391Z,2.65
2023-03-24T15:40:42.103Z,3.00
2023-03-24T15:43:31.664Z,2.97
2023-03-24T15:46:29.948Z,2.80
2023-03-24T15:49:27.778Z,2.90
2023-03-24T15:52:28.971Z,2.70
2023-03-24T15:55:28.399Z,2.80
2023-03-24T15:58:28.637Z,3.03
2023-03-24T16:01:25.813Z,3.15
2023-03-24T16:04:16.936Z,4.13
2023-03-24T16:07:05.976Z,3.10
2023-03-24T16:09:59.416Z,3.60
2023-03-24T16:12:52.466Z,4.82
2023-03-24T16:15:45.514Z,4.28
2023-03-24T16:18:36.282Z,4.53
2023-03-24T16:21:28.042Z,4.90
2023-03-24T16:24:17.319Z,3.95
2023-03-24T16:27:06.157Z,5.00
2023-03-24T16:29:55.936Z,4.10
2023-03-24T16:32:47.173Z,4.05
2023-03-24T16:35:36.452Z,5.85
2023-03-24T16:38:26.222Z,4.53
2023-03-24T16:41:15.025Z,4.35
2023-03-24T16:44:04.108Z,5.00
2023-03-24T16:46:55.413Z,4.65
2023-03-24T16:49:46.779Z,5.45
2023-03-24T16:52:35.866Z,5.18
2023-03-24T16:55:24.904Z,6.97
2023-03-24T16:58:15.151Z,5.18
2023-03-24T17:01:04.114Z,5.18
2023-03-24T17:03:54.629Z,5.32
2023-03-24T17:06:47.254Z,5.55
2023-03-24T17:09:36.460Z,5.10
2023-03-24T17:12:26.153Z,5.50
2023-03-24T17:15:21.462Z,7.10
2023-03-24T17:18:11.384Z,6.30
2023-03-24T17:21:00.375Z,6.32
2023-03-24T17:23:55.079Z,7.45
2023-03-24T17:26:44.430Z,7.32
2023-03-24T17:29:33.728Z,7.45
2023-03-24T17:32:22.533Z,7.68
2023-03-24T17:35:12.829Z,8.02
2023-03-24T17:38:01.744Z,7.97
2023-03-24T17:41:00.152Z,8.10
2023-03-24T17:43:49.273Z,8.77
2023-03-24T17:46:38.430Z,8.60
2023-03-24T17:49:27.971Z,8.75
2023-03-24T17:52:17.255Z,9.35
2023-03-24T17:55:07.039Z,9.38
2023-03-24T17:57:57.116Z,10.13
2023-03-24T18:00:46.974Z,10.57
2023-03-24T18:03:38.300Z,9.95
2023-03-24T18:06:27.615Z,10.25
2023-03-24T18:09:17.303Z,10.57
2023-03-24T18:12:06.240Z,10.48
2023-03-24T18:14:56.755Z,9.93
2023-03-24T18:17:45.685Z,11.13
2023-03-24T18:20:36.418Z,9.65
2023-03-24T18:23:25.152Z,9.10
2023-03-24T18:26:14.117Z,8.82
2023-03-24T18:29:03.618Z,8.02
2023-03-24T18:31:53.826Z,8.07
2023-03-24T18:34:44.877Z,7.95
2023-03-24T18:37:34.072Z,7.30
2023-03-24T18:40:22.879Z,7.88
2023-03-24T18:43:11.794Z,8.35
2023-03-24T18:46:00.471Z,7.45
2023-03-24T18:48:53.181Z,7.78
2023-03-24T18:51:42.204Z,7.65
2023-03-24T18:54:31.123Z,7.40
2023-03-24T18:57:20.326Z,7.15
2023-03-24T19:00:10.969Z,7.35
2023-03-24T19:03:01.065Z,7.22
2023-03-24T19:05:53.176Z,7.20
2023-03-24T19:08:44.728Z,7.53
2023-03-24T19:11:33.882Z,7.32
2023-03-24T19:14:22.580Z,6.80
2023-03-24T19:17:11.548Z,7.38
2023-03-24T19:20:00.397Z,7.32
2023-03-24T19:22:50.851Z,7.63
2023-03-24T19:25:40.494Z,7.45
2023-03-24T19:28:31.120Z,7.40
2023-03-24T19:31:20.988Z,7.72
2023-03-24T19:34:09.949Z,8.57
2023-03-24T19:36:58.769Z,7.63
2023-03-24T19:39:48.958Z,8.25
2023-03-24T19:42:39.912Z,8.27
2023-03-24T19:45:29.103Z,8.10
2023-03-24T19:48:18.036Z,8.40
2023-03-24T19:51:07.379Z,8.73
2023-03-24T19:53:56.139Z,9.20
2023-03-24T19:56:46.649Z,9.32
2023-03-24T19:59:35.665Z,9.02
2023-03-24T20:02:25.015Z,9.27
2023-03-24T20:05:14.805Z,10.13
2023-03-24T20:08:03.693Z,9.98
2023-03-24T20:10:52.576Z,10.20
2023-03-24T20:13:43.008Z,10.52
2023-03-24T20:16:32.050Z,10.80
2023-03-24T20:19:20.900Z,11.52
2023-03-24T20:22:09.531Z,12.38
2023-03-24T20:24:58.380Z,11.98
2023-03-24T20:27:51.438Z,12.45
2023-03-24T20:30:45.183Z,12.52
2023-03-24T20:33:34.412Z,12.65
2023-03-24T20:36:23.271Z,11.68
2023-03-24T20:39:12.044Z,11.68
2023-03-24T20:42:01.159Z,11.57
2023-03-24T20:44:49.995Z,11.95
2023-03-24T20:47:40.204Z,11.10
2023-03-24T20:50:28.957Z,11.85
2023-03-24T20:53:18.206Z,11.15
2023-03-24T20:56:09.217Z,10.95
2023-03-24T20:59:01.162Z,10.75
2023-03-24T21:01:50.008Z,10.85
2023-03-24T21:04:40.439Z,10.82
2023-03-24T21:07:29.286Z,10.48
2023-03-24T21:10:18.226Z,9.57
2023-03-24T21:13:08.595Z,9.95
2023-03-24T21:15:58.186Z,10.40
2023-03-24T21:18:48.347Z,10.80
2023-03-24T21:21:39.809Z,10.00
2023-03-24T21:24:28.922Z,10.15
2023-03-24T21:27:17.813Z,9.57
2023-03-24T21:30:08.249Z,9.73
2023-03-24T21:32:58.175Z,9.88
2023-03-24T21:35:47.128Z,9.20
2023-03-24T21:38:37.650Z,10.07
2023-03-24T21:41:26.549Z,9.00
2023-03-24T21:44:15.582Z,9.20
2023-03-24T21:47:04.530Z,8.07
2023-03-24T21:49:59.118Z,7.95
2023-03-24T21:52:48.111Z,6.63
2023-03-24T21:55:38.421Z,6.95
2023-03-24T21:58:28.836Z,7.60
2023-03-24T22:01:17.573Z,6.93
2023-03-24T22:04:09.179Z,6.75
2023-03-24T22:06:57.954Z,6.72
2023-03-24T22:09:50.824Z,7.35
2023-03-24T22:12:45.774Z,7.50
2023-03-24T22:15:35.567Z,8.02
2023-03-24T22:18:26.598Z,8.02
2023-03-24T22:21:15.567Z,8.00
2023-03-24T22:24:04.516Z,8.35
2023-03-24T22:26:53.831Z,8.13
2023-03-24T22:29:43.934Z,7.82
2023-03-24T22:32:33.187Z,8.13
2023-03-24T22:35:26.372Z,8.90
2023-03-24T22:38:16.128Z,9.68
2023-03-24T22:41:07.396Z,8.60
2023-03-24T22:43:56.214Z,8.55
2023-03-24T22:46:46.300Z,7.85
2023-03-24T22:49:36.785Z,6.78
2023-03-24T22:52:27.665Z,7.10
2023-03-24T22:55:17.889Z,6.85
2023-03-24T22:58:06.802Z,6.50
2023-03-24T23:00:57.873Z,6.70
2023-03-24T23:03:47.892Z,6.25
2023-03-24T23:06:36.795Z,7.13
2023-03-24T23:09:25.592Z,6.07
2023-03-24T23:12:16.547Z,6.28
2023-03-24T23:15:07.788Z,5.70
2023-03-24T23:17:57.329Z,6.05
2023-03-24T23:20:52.952Z,6.43
2023-03-24T23:23:43.043Z,5.72
2023-03-24T23:26:32.040Z,5.25
2023-03-24T23:29:20.740Z,5.20
2023-03-24T23:32:09.935Z,4.82
2023-03-24T23:34:58.952Z,4.82
2023-03-24T23:37:49.606Z,4.80
2023-03-24T23:40:38.217Z,4.78
2023-03-24T23:43:27.356Z,4.82
2023-03-24T23:46:16.713Z,4.72
2023-03-24T23:49:09.892Z,4.40
2023-03-24T23:51:58.576Z,4.65
2023-03-24T23:54:48.690Z,4.75
2023-03-24T23:57:37.320Z,5.20
